Time;durP1;ratioP1;P1;durP2;ratioP2;P2;SDS_P1;SDS_P2;PMS_P1;PMS_P2;Temp;Humidity;BMP_temperature;BMP_pressure;BME280_temperature;BME280_humidity;BME280_pressure;Samples;Min_cycle;Max_cycle;Signal;HPM_P1;HPM_P2
2022/06/23 00:00:07;;;;;;;2.17;1.08;;;20.00;97.70;;;;;;6113194;23;20026;-77
2022/06/23 00:02:35;;;;;;;1.23;0.93;;;20.10;97.30;;;;;;6112278;23;20141;-77
2022/06/23 00:05:07;;;;;;;2.17;1.15;;;20.10;97.10;;;;;;6110482;23;20013;-77
2022/06/23 00:07:37;;;;;;;46.65;4.32;;;20.10;97.10;;;;;;6108340;23;20002;-76
2022/06/23 00:10:24;;;;;;;5.72;0.90;;;20.00;97.00;;;;;;6113991;23;19998;-77
2022/06/23 00:12:50;;;;;;;3.67;1.00;;;20.00;97.30;;;;;;6113038;23;20009;-66
2022/06/23 00:15:43;;;;;;;1.30;0.88;;;20.00;96.90;;;;;;6112363;23;20002;-66
2022/06/23 00:18:20;;;;;;;4.97;0.80;;;20.10;95.90;;;;;;6111940;23;20010;-66
2022/06/23 00:21:15;;;;;;;0.73;0.70;;;20.10;95.10;;;;;;6113292;23;20173;-66
2022/06/23 00:23:45;;;;;;;2.55;0.75;;;20.10;94.50;;;;;;6112106;23;20085;-67
2022/06/23 00:26:21;;;;;;;0.95;0.80;;;20.20;94.90;;;;;;6110905;23;20204;-67
2022/06/23 00:28:58;;;;;;;1.42;0.65;;;20.20;94.70;;;;;;6112545;23;20049;-67
2022/06/23 00:31:27;;;;;;;1.02;0.68;;;20.10;94.90;;;;;;6111777;23;20002;-67
2022/06/23 00:33:54;;;;;;;3.80;0.73;;;20.00;94.70;;;;;;6111528;23;20061;-66
2022/06/23 00:36:47;;;;;;;0.95;0.82;;;20.00;94.70;;;;;;6113289;23;20478;-66
2022/06/23 00:39:40;;;;;;;2.25;0.90;;;20.00;95.60;;;;;;6111969;23;20009;-67
2022/06/23 00:42:21;;;;;;;0.80;0.70;;;19.90;95.70;;;;;;6111854;23;20060;-68
2022/06/23 00:45:09;;;;;;;2.42;0.80;;;19.80;96.30;;;;;;6113768;23;20029;-68
2022/06/23 00:48:00;;;;;;;1.08;0.90;;;19.80;96.50;;;;;;6091012;23;20014;-68
2022/06/23 00:51:04;;;;;;;3.17;0.82;;;19.60;97.60;;;;;;6113029;23;20013;-72
2022/06/23 00:53:50;;;;;;;1.83;0.80;;;19.50;97.60;;;;;;6013889;23;20010;-73
2022/06/23 00:56:38;;;;;;;3.30;0.77;;;19.50;98.60;;;;;;6110171;23;20006;-76
2022/06/23 00:59:32;;;;;;;2.55;1.02;;;19.40;98.00;;;;;;6113918;23;20002;-72
2022/06/23 01:02:22;;;;;;;2.15;0.70;;;19.40;97.80;;;;;;6114159;23;20080;-72
2022/06/23 01:05:03;;;;;;;1.85;0.80;;;19.30;97.60;;;;;;6110053;23;20002;-72
2022/06/23 01:07:41;;;;;;;0.90;0.80;;;19.30;97.70;;;;;;6087253;23;20066;-72
2022/06/23 01:10:22;;;;;;;1.08;0.70;;;19.30;97.50;;;;;;6111547;23;20064;-69
2022/06/23 01:12:59;;;;;;;17.58;1.73;;;19.30;97.70;;;;;;6111804;23;20077;-69
2022/06/23 01:15:38;;;;;;;3.10;1.10;;;19.30;98.60;;;;;;6111354;23;20013;-69
2022/06/23 01:18:19;;;;;;;1.58;0.80;;;19.30;98.60;;;;;;6114003;23;20020;-69
2022/06/23 01:21:08;;;;;;;0.85;0.70;;;19.30;98.00;;;;;;6085905;23;20013;-68
2022/06/23 01:23:45;;;;;;;1.27;0.60;;;19.20;96.80;;;;;;6113566;23;20384;-69
2022/06/23 01:26:30;;;;;;;2.35;0.75;;;19.20;96.70;;;;;;6081334;23;20010;-68
2022/06/23 01:29:24;;;;;;;1.10;0.73;;;19.10;96.90;;;;;;6112943;23;20856;-73
2022/06/23 01:31:54;;;;;;;1.50;0.70;;;19.10;95.70;;;;;;6111986;23;20428;-73
2022/06/23 01:34:45;;;;;;;1.13;0.70;;;19.20;95.20;;;;;;6110581;23;20085;-72
2022/06/23 01:37:30;;;;;;;2.35;0.82;;;19.30;94.50;;;;;;6111421;23;20021;-73
2022/06/23 01:40:28;;;;;;;1.00;0.80;;;19.20;95.70;;;;;;6110008;23;20002;-72
2022/06/23 01:43:22;;;;;;;0.90;0.70;;;19.20;95.60;;;;;;6112055;23;20006;-73
2022/06/23 01:46:01;;;;;;;0.85;0.52;;;19.10;95.60;;;;;;6111594;23;20396;-69
2022/06/23 01:48:54;;;;;;;2.92;0.88;;;19.20;94.50;;;;;;6112487;23;20014;-68
2022/06/23 01:51:24;;;;;;;3.88;0.90;;;19.10;95.40;;;;;;6111904;23;20014;-69
2022/06/23 01:54:14;;;;;;;1.42;0.70;;;18.90;96.50;;;;;;6110515;23;20006;-68
2022/06/23 01:57:21;;;;;;;3.35;1.00;;;18.80;97.10;;;;;;6108926;23;20018;-69
2022/06/23 01:59:58;;;;;;;1.65;0.90;;;18.70;97.20;;;;;;6113616;23;20049;-69
2022/06/23 02:02:52;;;;;;;7.32;0.70;;;18.70;96.80;;;;;;6113078;23;20010;-69
2022/06/23 02:05:45;;;;;;;3.30;0.93;;;18.70;96.80;;;;;;6114700;23;20017;-69
2022/06/23 02:08:23;;;;;;;1.27;0.80;;;18.60;97.10;;;;;;6110999;23;20010;-69
2022/06/23 02:11:24;;;;;;;1.88;0.85;;;18.60;98.20;;;;;;6113854;23;20002;-69
2022/06/23 02:14:09;;;;;;;3.33;0.85;;;18.60;98.20;;;;;;6114633;23;20002;-68
2022/06/23 02:16:46;;;;;;;0.65;0.65;;;18.60;97.30;;;;;;6112433;23;20053;-68
2022/06/23 02:19:36;;;;;;;2.47;0.70;;;18.70;97.00;;;;;;6113211;23;20031;-68
2022/06/23 02:22:27;;;;;;;2.60;0.90;;;18.70;96.60;;;;;;6114221;23;20006;-69
2022/06/23 02:25:05;;;;;;;2.33;1.10;;;18.70;97.60;;;;;;6114179;23;20010;-72
2022/06/23 02:27:50;;;;;;;1.40;0.65;;;18.60;97.80;;;;;;6115566;23;20030;-72
2022/06/23 02:30:38;;;;;;;1.38;0.80;;;18.60;97.90;;;;;;6112966;23;20006;-72
2022/06/23 02:33:30;;;;;;;1.08;0.82;;;18.60;97.80;;;;;;6113601;23;20351;-72
2022/06/23 02:36:16;;;;;;;0.73;0.60;;;18.60;97.70;;;;;;6116780;23;20101;-73
2022/06/23 02:38:45;;;;;;;2.65;0.65;;;18.50;97.80;;;;;;6110840;23;20109;-72
2022/06/23 02:41:18;;;;;;;1.17;0.88;;;18.50;97.90;;;;;;6112787;23;20012;-72
2022/06/23 02:43:54;;;;;;;2.63;0.90;;;18.40;97.70;;;;;;6114203;23;20040;-68
2022/06/23 02:46:39;;;;;;;2.08;0.80;;;18.30;98.40;;;;;;6113612;23;20079;-68
2022/06/23 02:49:19;;;;;;;0.93;0.90;;;18.30;98.70;;;;;;6113308;23;20001;-69
2022/06/23 02:52:22;;;;;;;1.38;0.70;;;18.20;99.40;;;;;;6114706;23;20009;-68
2022/06/23 02:55:14;;;;;;;5.85;1.10;;;18.20;99.40;;;;;;6113490;23;20002;-69
2022/06/23 02:57:48;;;;;;;4.38;0.82;;;18.20;99.60;;;;;;6111226;23;20017;-68
2022/06/23 03:00:18;;;;;;;1.05;0.68;;;18.10;99.60;;;;;;6113791;23;20081;-69
2022/06/23 03:03:11;;;;;;;3.13;0.75;;;18.10;98.90;;;;;;6112580;23;20034;-73
2022/06/23 03:05:46;;;;;;;3.08;0.82;;;18.10;98.70;;;;;;6113883;23;20010;-72
2022/06/23 03:08:36;;;;;;;0.80;0.80;;;18.00;99.10;;;;;;6111202;23;20157;-72
2022/06/23 03:11:16;;;;;;;2.75;0.82;;;18.00;99.90;;;;;;6113581;23;20005;-72
2022/06/23 03:13:58;;;;;;;0.90;0.82;;;17.90;99.90;;;;;;6085761;23;20014;-72
2022/06/23 03:16:42;;;;;;;2.30;0.90;;;17.80;99.90;;;;;;6111650;23;20061;-72
2022/06/23 03:19:26;;;;;;;2.28;0.90;;;17.80;99.90;;;;;;6111639;23;20260;-72
2022/06/23 03:22:03;;;;;;;2.25;0.77;;;17.80;99.90;;;;;;6111962;23;20507;-68
2022/06/23 03:24:34;;;;;;;3.35;0.82;;;17.80;99.90;;;;;;6112207;23;20006;-68
2022/06/23 03:27:05;;;;;;;2.33;0.93;;;17.80;99.90;;;;;;6111885;23;20065;-68
2022/06/23 03:29:46;;;;;;;1.80;0.90;;;17.80;99.90;;;;;;6113188;23;20040;-68
2022/06/23 03:32:19;;;;;;;1.17;0.57;;;17.80;99.90;;;;;;6111726;23;20038;-68
2022/06/23 03:34:48;;;;;;;2.63;1.00;;;17.80;99.90;;;;;;6114302;23;20018;-68
2022/06/23 03:37:16;;;;;;;3.20;0.80;;;17.80;99.90;;;;;;6111787;23;20021;-68
2022/06/23 03:42:58;;;;;;;1.05;0.70;;;17.90;99.90;;;;;;6113003;23;20530;-72
2022/06/23 03:45:34;;;;;;;4.20;1.25;;;18.00;99.90;;;;;;6112614;23;20006;-72
2022/06/23 03:48:03;;;;;;;6.43;0.95;;;18.10;99.60;;;;;;6110937;23;20008;-72
2022/06/23 03:50:38;;;;;;;13.93;1.50;;;18.10;99.40;;;;;;6112057;23;20072;-72
2022/06/23 03:53:26;;;;;;;5.20;1.10;;;18.10;99.30;;;;;;6112655;23;20006;-72
2022/06/23 03:55:55;;;;;;;9.85;1.25;;;18.20;99.40;;;;;;6112944;23;20955;-72
2022/06/23 03:58:29;;;;;;;1.10;0.82;;;18.20;99.60;;;;;;6109210;23;20479;-72
2022/06/23 04:01:14;;;;;;;2.25;1.33;;;18.20;99.90;;;;;;6113263;23;20053;-68
2022/06/23 04:04:02;;;;;;;4.38;1.25;;;18.00;99.90;;;;;;6111405;23;20002;-68
2022/06/23 04:06:36;;;;;;;1.52;0.98;;;18.00;99.90;;;;;;6111437;23;20214;-68
2022/06/23 04:09:07;;;;;;;19.67;1.83;;;18.00;99.90;;;;;;6111670;23;20064;-68
2022/06/23 04:11:48;;;;;;;38.15;2.22;;;18.00;99.90;;;;;;6113422;23;20002;-68
2022/06/23 04:15:12;;;;;;;7.20;1.73;;;18.00;99.90;;;;;;6112195;23;20557;-68
2022/06/23 04:17:55;;;;;;;4.10;1.67;;;18.00;99.90;;;;;;6071660;23;20032;-68
2022/06/23 04:20:29;;;;;;;2.13;1.38;;;18.00;99.90;;;;;;6112618;23;20002;-68
2022/06/23 04:23:13;;;;;;;7.50;1.50;;;18.00;99.90;;;;;;6115260;23;20005;-68
2022/06/23 04:25:52;;;;;;;15.75;1.83;;;18.10;99.90;;;;;;6112938;23;20006;-68
2022/06/23 04:28:26;;;;;;;1.52;1.23;;;18.10;99.90;;;;;;6087490;23;20044;-68
2022/06/23 04:30:55;;;;;;;1.38;0.85;;;18.10;99.90;;;;;;6113895;23;20010;-68
2022/06/23 04:33:23;;;;;;;3.20;1.30;;;18.20;99.90;;;;;;6087658;23;20236;-68
2022/06/23 04:35:53;;;;;;;16.40;2.00;;;18.20;99.90;;;;;;6113884;23;20014;-68
2022/06/23 04:38:43;;;;;;;1.85;1.00;;;18.30;99.90;;;;;;6085364;23;20056;-72
2022/06/23 04:41:29;;;;;;;7.63;1.38;;;18.30;99.90;;;;;;6112257;23;20006;-71
2022/06/23 04:44:29;;;;;;;4.10;1.08;;;18.40;99.90;;;;;;6114278;23;20142;-73
2022/06/23 04:47:31;;;;;;;7.88;1.30;;;18.50;99.90;;;;;;6085379;23;20045;-73
2022/06/23 04:50:03;;;;;;;3.70;1.15;;;18.60;99.90;;;;;;6049668;23;20029;-72
2022/06/23 04:52:35;;;;;;;1.65;1.27;;;18.70;99.90;;;;;;6113277;23;20016;-72
2022/06/23 04:55:21;;;;;;;7.18;3.45;;;18.70;99.90;;;;;;6113047;23;20143;-72
2022/06/23 04:57:50;;;;;;;4.05;1.65;;;18.80;99.80;;;;;;6107507;23;20010;-69
2022/06/23 05:00:29;;;;;;;5.65;1.35;;;18.90;99.90;;;;;;6113391;23;20009;-68
2022/06/23 05:02:59;;;;;;;1.50;1.17;;;19.00;99.90;;;;;;6112835;23;20482;-69
2022/06/23 05:05:35;;;;;;;6.63;1.20;;;19.10;99.90;;;;;;6115165;23;20006;-68
2022/06/23 05:08:04;;;;;;;4.78;1.13;;;19.20;99.90;;;;;;6113646;23;20010;-68
2022/06/23 05:11:12;;;;;;;2.97;0.82;;;19.30;99.50;;;;;;6111748;23;20005;-68
2022/06/23 05:13:43;;;;;;;8.20;2.05;;;19.50;99.40;;;;;;6111316;23;20013;-67
2022/06/23 05:16:30;;;;;;;2.03;1.17;;;19.60;98.80;;;;;;6113553;23;20006;-72
2022/06/23 05:19:00;;;;;;;10.90;1.50;;;19.70;98.90;;;;;;6113899;23;20248;-71
2022/06/23 05:21:37;;;;;;;4.38;1.00;;;19.80;98.90;;;;;;6112617;23;20013;-73
2022/06/23 05:24:11;;;;;;;2.40;1.00;;;19.90;98.80;;;;;;6108916;23;20065;-72
2022/06/23 05:26:40;;;;;;;4.18;1.00;;;20.00;97.70;;;;;;6113248;23;20866;-73
2022/06/23 05:29:13;;;;;;;9.48;0.88;;;20.10;97.60;;;;;;6112391;23;20424;-73
2022/06/23 05:31:40;;;;;;;3.45;0.85;;;20.20;96.50;;;;;;6114047;23;20696;-73
2022/06/23 05:34:16;;;;;;;2.15;0.73;;;20.30;96.30;;;;;;6112836;23;20022;-73
2022/06/23 05:36:51;;;;;;;10.50;1.23;;;20.40;95.70;;;;;;6113724;23;20939;-73
2022/06/23 05:39:31;;;;;;;3.50;1.02;;;20.60;95.50;;;;;;6112529;23;20013;-70
2022/06/23 05:41:59;;;;;;;6.38;1.10;;;20.70;94.80;;;;;;6112753;23;20026;-70
2022/06/23 05:44:34;;;;;;;4.70;1.00;;;20.80;94.40;;;;;;6110098;23;20006;-70
2022/06/23 05:47:02;;;;;;;2.65;0.95;;;20.80;94.30;;;;;;6110610;23;20057;-70
2022/06/23 05:49:36;;;;;;;0.88;0.60;;;20.90;93.40;;;;;;6112080;23;20006;-71
2022/06/23 05:52:06;;;;;;;1.50;0.80;;;20.90;92.50;;;;;;6114767;23;20041;-73
2022/06/23 05:54:42;;;;;;;3.67;0.85;;;20.80;92.20;;;;;;6113124;23;20010;-71
2022/06/23 05:57:16;;;;;;;2.50;0.90;;;20.80;92.60;;;;;;6114152;23;20089;-71
2022/06/23 05:59:50;;;;;;;6.95;1.17;;;20.90;91.10;;;;;;6111175;23;20025;-69
2022/06/23 06:02:24;;;;;;;4.03;0.98;;;20.90;91.40;;;;;;6084539;23;20436;-70
2022/06/23 06:04:52;;;;;;;1.55;0.65;;;21.00;91.80;;;;;;6112945;23;20428;-70
2022/06/23 06:07:26;;;;;;;3.45;0.90;;;21.00;91.70;;;;;;6113023;23;20049;-70
2022/06/23 06:09:54;;;;;;;4.15;0.80;;;21.10;92.00;;;;;;6111959;23;20002;-71
2022/06/23 06:12:22;;;;;;;1.10;0.63;;;21.20;91.10;;;;;;6086988;23;20014;-71
2022/06/23 06:15:04;;;;;;;3.05;1.00;;;21.20;90.70;;;;;;6114049;23;20013;-73
2022/06/23 06:17:33;;;;;;;2.33;0.70;;;21.30;90.20;;;;;;6113259;23;20017;-73
2022/06/23 06:20:05;;;;;;;4.97;1.00;;;21.40;89.80;;;;;;6110810;23;20056;-74
2022/06/23 06:22:30;;;;;;;;;;;21.50;88.10;;;;;;6114579;23;20077;-73
2022/06/23 06:25:00;;;;;;;2.05;0.80;;;21.60;88.70;;;;;;6113394;23;20315;-74
2022/06/23 06:27:26;;;;;;;2.15;1.00;;;21.70;87.80;;;;;;6114546;23;20017;-74
2022/06/23 06:29:52;;;;;;;4.90;1.00;;;21.70;87.50;;;;;;6116408;23;20017;-74
2022/06/23 06:32:30;;;;;;;1.95;0.68;;;21.80;89.10;;;;;;6115456;23;20049;-70
2022/06/23 06:34:58;;;;;;;3.58;0.80;;;21.80;88.00;;;;;;6114973;23;20025;-70
2022/06/23 06:37:32;;;;;;;1.95;0.80;;;21.80;87.80;;;;;;6113127;23;20013;-71
2022/06/23 06:40:01;;;;;;;14.82;1.52;;;21.90;88.00;;;;;;6114361;23;20002;-71
2022/06/23 06:42:50;;;;;;;0.70;0.60;;;22.00;88.40;;;;;;6113333;23;20002;-70
2022/06/23 06:45:20;;;;;;;2.42;0.88;;;22.20;88.70;;;;;;6115990;23;20008;-70
2022/06/23 06:47:46;;;;;;;2.15;0.90;;;22.30;88.60;;;;;;6114911;23;20017;-71
2022/06/23 06:50:21;;;;;;;1.08;0.80;;;22.20;85.10;;;;;;6090427;23;20045;-71
2022/06/23 06:52:49;;;;;;;1.33;0.70;;;22.30;84.70;;;;;;6116496;23;20190;-75
2022/06/23 06:55:38;;;;;;;1.52;0.90;;;22.40;85.20;;;;;;6091045;23;20006;-75
2022/06/23 06:58:18;;;;;;;2.17;0.88;;;22.50;81.80;;;;;;6118146;23;20460;-75
2022/06/23 07:00:59;;;;;;;0.95;0.60;;;22.50;79.70;;;;;;6115455;23;20010;-75
2022/06/23 07:03:26;;;;;;;1.65;0.90;;;22.40;79.10;;;;;;6114836;23;20025;-74
2022/06/23 07:06:09;;;;;;;2.58;1.00;;;22.40;82.30;;;;;;6113633;23;20452;-75
2022/06/23 07:08:41;;;;;;;3.33;0.63;;;22.50;86.20;;;;;;6114393;23;19998;-75
2022/06/23 07:11:29;;;;;;;4.45;0.70;;;22.60;84.90;;;;;;6090402;23;20081;-75
2022/06/23 07:14:07;;;;;;;0.68;0.55;;;22.70;84.70;;;;;;6117393;23;20083;-75
2022/06/23 07:16:42;;;;;;;5.05;0.60;;;22.80;85.20;;;;;;6117061;23;20106;-75
2022/06/23 07:19:34;;;;;;;4.03;0.90;;;22.90;82.40;;;;;;6088574;23;20022;-75
2022/06/23 07:22:22;;;;;;;1.83;0.98;;;23.00;81.50;;;;;;6117312;23;20002;-76
2022/06/23 07:25:03;;;;;;;2.75;0.70;;;23.10;80.30;;;;;;6117630;23;20005;-75
2022/06/23 07:27:41;;;;;;;5.80;0.70;;;23.20;82.30;;;;;;6116805;23;20002;-76
2022/06/23 07:30:15;;;;;;;1.85;0.70;;;23.40;81.70;;;;;;6116273;23;20006;-72
2022/06/23 07:32:57;;;;;;;2.75;0.80;;;23.50;80.20;;;;;;6115141;23;20502;-72
2022/06/23 07:35:53;;;;;;;4.25;1.55;;;23.50;79.20;;;;;;6115344;23;20455;-71
2022/06/23 07:38:43;;;;;;;2.22;0.77;;;23.50;80.20;;;;;;6114896;23;20019;-71
2022/06/23 07:41:24;;;;;;;1.30;0.57;;;23.50;73.30;;;;;;6117226;23;20009;-71
2022/06/23 07:44:02;;;;;;;4.47;0.65;;;23.50;74.80;;;;;;6116966;23;20013;-72
2022/06/23 07:46:28;;;;;;;2.72;0.90;;;23.60;74.90;;;;;;6114980;23;20005;-71
2022/06/23 07:48:54;;;;;;;2.20;0.90;;;23.80;75.10;;;;;;6116182;23;20056;-74
2022/06/23 07:51:20;;;;;;;0.73;0.73;;;23.80;74.60;;;;;;6117388;23;20006;-75
2022/06/23 07:53:49;;;;;;;2.85;0.60;;;23.80;73.60;;;;;;6116470;23;20235;-74
2022/06/23 07:56:22;;;;;;;1.92;0.85;;;23.80;72.10;;;;;;6117290;23;20036;-74
2022/06/23 07:58:52;;;;;;;3.40;0.70;;;23.90;71.50;;;;;;6116860;23;20014;-80
2022/06/23 08:01:28;;;;;;;3.15;0.63;;;24.00;65.90;;;;;;6117372;23;20029;-75
2022/06/23 08:04:13;;;;;;;2.90;0.68;;;23.90;68.90;;;;;;6113889;23;20057;-74
2022/06/23 08:06:39;;;;;;;4.30;1.00;;;24.00;66.40;;;;;;6113239;23;20025;-73
2022/06/23 08:09:24;;;;;;;0.57;0.57;;;24.10;71.50;;;;;;6114390;23;20006;-72
2022/06/23 08:14:40;;;;;;;2.97;0.70;;;24.30;67.00;;;;;;6113712;23;20021;-71
2022/06/23 08:17:13;;;;;;;2.87;0.70;;;24.40;70.10;;;;;;6112865;23;20049;-71
2022/06/23 08:19:45;;;;;;;3.55;0.93;;;24.50;67.40;;;;;;6113459;23;20006;-72
2022/06/23 08:22:11;;;;;;;;;;;24.40;65.10;;;;;;6114405;23;20014;-72
2022/06/23 08:24:38;;;;;;;2.20;0.82;;;24.40;62.40;;;;;;6112221;23;20279;-72
2022/06/23 08:27:13;;;;;;;3.50;0.52;;;24.50;64.30;;;;;;6086002;23;20566;-72
2022/06/23 08:29:41;;;;;;;1.17;0.52;;;24.60;63.90;;;;;;6115830;23;20029;-72
2022/06/23 08:32:07;;;;;;;1.75;0.75;;;24.80;64.20;;;;;;6114682;23;20006;-71
2022/06/23 08:34:35;;;;;;;2.00;0.63;;;24.80;60.30;;;;;;6113280;23;20022;-72
2022/06/23 08:37:09;;;;;;;0.68;0.65;;;24.80;59.40;;;;;;6114667;23;20071;-72
2022/06/23 08:39:48;;;;;;;3.55;0.82;;;24.70;56.80;;;;;;6087636;23;20515;-72
2022/06/23 08:42:29;;;;;;;4.13;1.17;;;24.80;59.80;;;;;;6116872;23;20076;-71
2022/06/23 08:45:27;;;;;;;1.98;0.63;;;24.70;61.50;;;;;;6116191;23;20620;-72
2022/06/23 08:48:06;;;;;;;1.48;0.65;;;24.70;61.70;;;;;;6065384;23;20014;-74
2022/06/23 08:50:53;;;;;;;2.08;1.05;;;24.60;61.50;;;;;;6116061;23;20109;-75
2022/06/23 08:53:29;;;;;;;1.40;0.60;;;24.60;62.50;;;;;;6116193;23;19998;-75
2022/06/23 08:56:19;;;;;;;1.88;0.80;;;24.60;63.30;;;;;;6089565;23;20088;-75
2022/06/23 08:58:52;;;;;;;0.80;0.80;;;24.80;63.10;;;;;;6115761;23;20018;-74
2022/06/23 09:01:28;;;;;;;2.25;0.43;;;24.80;61.50;;;;;;6116915;23;20630;-74
2022/06/23 09:04:10;;;;;;;1.92;0.73;;;24.70;60.20;;;;;;6086374;23;20013;-76
2022/06/23 09:06:45;;;;;;;0.70;0.70;;;24.70;60.10;;;;;;6114326;23;20161;-71
2022/06/23 09:09:40;;;;;;;3.10;0.68;;;24.60;61.60;;;;;;6115222;23;20053;-71
2022/06/23 09:12:33;;;;;;;1.67;0.43;;;24.60;62.50;;;;;;6112888;23;20013;-71
2022/06/23 09:15:12;;;;;;;1.65;0.73;;;24.60;56.90;;;;;;6085697;23;20856;-71
2022/06/23 09:18:06;;;;;;;1.30;0.70;;;24.60;55.60;;;;;;6113335;23;20010;-71
2022/06/23 09:21:01;;;;;;;1.67;0.77;;;24.50;57.40;;;;;;6113253;23;20081;-70
2022/06/23 09:24:03;;;;;;;0.90;0.45;;;24.50;57.90;;;;;;6088944;23;20391;-71
2022/06/23 09:26:39;;;;;;;0.77;0.68;;;24.60;58.70;;;;;;6048312;23;20033;-75
2022/06/23 09:29:20;;;;;;;1.40;0.80;;;24.60;62.30;;;;;;6114067;23;20002;-76
2022/06/23 09:31:45;;;;;;;4.00;0.75;;;24.80;57.40;;;;;;6112836;23;20016;-74
2022/06/23 09:34:40;;;;;;;2.75;0.68;;;24.80;56.80;;;;;;6114238;23;20088;-74
2022/06/23 09:37:30;;;;;;;1.67;0.50;;;24.80;55.30;;;;;;6114368;23;20022;-75
2022/06/23 09:40:35;;;;;;;0.68;0.50;;;24.70;55.30;;;;;;6113885;23;20033;-75
2022/06/23 09:43:33;;;;;;;3.15;0.70;;;24.70;54.60;;;;;;6115368;23;20009;-71
2022/06/23 09:46:42;;;;;;;0.68;0.55;;;24.80;59.10;;;;;;6114165;23;20527;-71
2022/06/23 09:49:33;;;;;;;15.75;1.10;;;24.80;58.60;;;;;;6104552;23;20005;-71
2022/06/23 09:52:13;;;;;;;1.17;0.60;;;24.90;60.60;;;;;;6112556;23;20041;-71
2022/06/23 09:54:48;;;;;;;0.63;0.50;;;24.90;57.30;;;;;;6114425;23;20013;-71
2022/06/23 09:57:51;;;;;;;2.20;0.60;;;24.90;55.90;;;;;;6113016;23;20014;-71
2022/06/23 10:00:35;;;;;;;2.05;0.63;;;24.90;55.00;;;;;;6113881;23;20017;-70
2022/06/23 10:03:20;;;;;;;1.25;0.70;;;24.90;54.90;;;;;;6113769;23;20089;-76
2022/06/23 10:05:51;;;;;;;3.00;0.82;;;24.90;57.80;;;;;;6113925;23;20018;-74
2022/06/23 10:08:33;;;;;;;1.07;0.70;;;25.00;53.70;;;;;;6113659;23;20002;-73
2022/06/23 10:11:17;;;;;;;1.50;0.68;;;25.00;57.00;;;;;;6111882;23;20228;-73
2022/06/23 10:14:05;;;;;;;1.70;0.75;;;25.10;57.00;;;;;;6114037;23;20012;-73
2022/06/23 10:17:19;;;;;;;2.15;0.68;;;25.20;58.40;;;;;;6114383;23;20403;-72
2022/06/23 10:20:00;;;;;;;3.95;0.65;;;25.30;57.40;;;;;;6088601;23;20014;-73
2022/06/23 10:22:43;;;;;;;3.08;0.90;;;25.30;54.70;;;;;;6114929;23;20439;-71
2022/06/23 10:25:30;;;;;;;1.48;0.60;;;25.30;57.50;;;;;;6117451;23;20034;-72
2022/06/23 10:28:16;;;;;;;2.15;0.80;;;25.30;53.80;;;;;;6113756;23;20447;-71
2022/06/23 10:31:04;;;;;;;1.52;0.60;;;25.30;53.60;;;;;;6094977;23;20021;-71
2022/06/23 10:33:51;;;;;;;2.72;0.40;;;25.20;53.20;;;;;;6113206;23;20345;-71
2022/06/23 10:36:35;;;;;;;1.95;0.60;;;25.10;54.90;;;;;;6115195;23;20013;-71
2022/06/23 10:39:22;;;;;;;2.35;0.70;;;25.10;54.70;;;;;;6116637;23;20491;-71
2022/06/23 10:42:06;;;;;;;4.57;0.60;;;25.20;54.90;;;;;;6116064;23;20704;-74
2022/06/23 10:44:57;;;;;;;1.10;0.63;;;25.20;55.70;;;;;;6088603;23;20632;-79
2022/06/23 10:47:57;;;;;;;1.50;0.85;;;25.20;53.10;;;;;;6113860;23;20010;-77
2022/06/23 10:50:59;;;;;;;2.35;0.50;;;25.10;51.80;;;;;;6110949;23;20002;-74
2022/06/23 10:53:37;;;;;;;;;;;25.00;53.00;;;;;;6114475;23;20013;-78
2022/06/23 10:56:26;;;;;;;1.75;0.55;;;25.10;54.80;;;;;;6115486;23;19915;-75
2022/06/23 10:58:54;;;;;;;1.55;0.77;;;25.00;53.10;;;;;;6114153;23;20017;-78
2022/06/23 11:01:38;;;;;;;2.50;0.80;;;25.10;53.40;;;;;;6114461;23;20069;-72
2022/06/23 11:04:28;;;;;;;2.28;0.75;;;25.20;53.00;;;;;;6116350;23;20002;-72
2022/06/23 11:06:56;;;;;;;1.38;0.60;;;25.30;53.50;;;;;;6115724;23;20002;-72
2022/06/23 11:09:41;;;;;;;0.77;0.70;;;25.40;53.00;;;;;;6115558;23;20014;-72
2022/06/23 11:12:15;;;;;;;1.25;0.60;;;25.50;52.60;;;;;;6115044;23;20002;-71
2022/06/23 11:15:10;;;;;;;0.68;0.60;;;25.60;51.70;;;;;;6116280;23;20014;-72
2022/06/23 11:18:06;;;;;;;1.40;0.70;;;25.60;52.00;;;;;;6115187;23;20014;-72
2022/06/23 11:21:10;;;;;;;0.75;0.63;;;25.70;52.90;;;;;;6116799;23;20006;-75
2022/06/23 11:23:49;;;;;;;0.65;0.50;;;25.80;52.80;;;;;;6117028;23;20613;-74
2022/06/23 11:26:46;;;;;;;0.98;0.80;;;25.90;53.10;;;;;;6114256;23;20013;-79
2022/06/23 11:29:29;;;;;;;1.00;0.70;;;25.90;52.30;;;;;;6114917;23;20002;-76
2022/06/23 11:32:11;;;;;;;2.88;0.60;;;26.00;51.60;;;;;;6090523;23;20006;-77
2022/06/23 11:35:05;;;;;;;0.70;0.60;;;25.90;53.80;;;;;;6115963;23;20538;-77
2022/06/23 11:37:58;;;;;;;3.42;0.65;;;25.90;53.00;;;;;;6113760;23;20025;-72
2022/06/23 11:41:03;;;;;;;0.93;0.70;;;26.00;51.80;;;;;;6088904;23;20013;-73
2022/06/23 11:43:37;;;;;;;0.65;0.50;;;26.00;53.00;;;;;;6115908;23;20725;-73
2022/06/23 11:46:14;;;;;;;0.98;0.52;;;26.10;53.10;;;;;;6116037;23;20006;-73
2022/06/23 11:49:19;;;;;;;4.45;0.70;;;26.10;51.20;;;;;;6113842;23;20001;-74
2022/06/23 11:52:22;;;;;;;2.65;0.68;;;26.20;51.90;;;;;;6114248;23;20097;-73
2022/06/23 11:55:03;;;;;;;0.82;0.50;;;26.20;51.50;;;;;;6114490;23;20134;-73
2022/06/23 11:57:44;;;;;;;1.58;0.80;;;26.30;51.40;;;;;;6114090;23;20072;-72
2022/06/23 12:00:17;;;;;;;1.25;0.70;;;26.30;51.10;;;;;;6115758;23;20092;-72
2022/06/23 12:03:18;;;;;;;3.15;0.70;;;26.30;51.70;;;;;;6112744;23;20085;-74
2022/06/23 12:06:09;;;;;;;0.52;0.52;;;26.20;52.40;;;;;;6109298;23;20036;-67
2022/06/23 12:08:43;;;;;;;1.35;0.50;;;26.20;54.10;;;;;;6111503;23;19994;-68
2022/06/23 12:11:10;;;;;;;4.13;0.75;;;26.20;54.50;;;;;;6111846;23;20029;-69
2022/06/23 12:13:37;;;;;;;1.25;0.82;;;26.30;54.80;;;;;;6112086;23;20009;-68
2022/06/23 12:16:03;;;;;;;1.35;0.70;;;26.40;54.00;;;;;;6114630;23;20017;-68
2022/06/23 12:18:31;;;;;;;1.17;0.80;;;26.30;53.70;;;;;;6110119;23;20407;-69
2022/06/23 12:21:14;;;;;;;2.83;0.70;;;26.40;56.50;;;;;;6109169;23;20006;-70
2022/06/23 12:24:11;;;;;;;2.28;0.65;;;26.50;55.90;;;;;;6110705;23;20009;-70
2022/06/23 12:26:46;;;;;;;2.67;0.80;;;26.60;55.40;;;;;;6109654;23;20006;-70
2022/06/23 12:29:26;;;;;;;1.65;0.70;;;26.60;56.20;;;;;;6112390;23;20014;-71
2022/06/23 12:32:21;;;;;;;1.33;0.50;;;26.60;54.70;;;;;;6111749;23;20719;-69
2022/06/23 12:35:16;;;;;;;2.75;1.13;;;26.50;53.90;;;;;;6099223;23;20036;-71
2022/06/23 12:38:05;;;;;;;1.58;0.80;;;26.50;52.50;;;;;;6109389;23;20316;-70
2022/06/23 12:40:43;;;;;;;0.82;0.60;;;26.60;55.90;;;;;;6114425;23;20085;-71
2022/06/23 12:43:19;;;;;;;1.33;0.70;;;26.80;57.30;;;;;;6111183;23;20100;-69
2022/06/23 12:45:50;;;;;;;0.65;0.60;;;26.90;55.00;;;;;;6110426;23;20089;-69
2022/06/23 12:48:37;;;;;;;3.95;0.73;;;27.00;55.80;;;;;;6111460;23;20651;-68
2022/06/23 12:51:26;;;;;;;1.70;0.68;;;27.20;56.20;;;;;;6113336;23;20002;-70
2022/06/23 12:53:54;;;;;;;1.00;0.70;;;27.20;51.70;;;;;;6112793;23;20554;-65
2022/06/23 12:56:32;;;;;;;2.17;0.98;;;27.20;52.30;;;;;;6112112;23;20069;-66
2022/06/23 12:59:24;;;;;;;1.27;0.70;;;27.20;51.90;;;;;;6111444;23;20033;-66
2022/06/23 13:01:52;;;;;;;;;;;27.10;48.60;;;;;;6113324;23;20006;-67
2022/06/23 13:04:50;;;;;;;12.10;1.38;;;27.00;49.70;;;;;;6112137;23;20382;-72
2022/06/23 13:07:35;;;;;;;1.00;0.73;;;26.90;51.50;;;;;;6046173;23;20454;-67
2022/06/23 13:10:21;;;;;;;2.30;0.70;;;26.90;49.90;;;;;;6108251;23;20176;-65
2022/06/23 13:13:04;;;;;;;1.55;0.50;;;26.80;53.00;;;;;;6085199;23;20010;-66
2022/06/23 13:15:39;;;;;;;0.65;0.50;;;27.00;55.70;;;;;;6111865;23;20017;-66
2022/06/23 13:18:23;;;;;;;1.98;0.80;;;27.10;55.30;;;;;;6111054;23;20150;-66
2022/06/23 13:21:15;;;;;;;0.80;0.70;;;27.10;53.50;;;;;;6114751;23;19998;-66
2022/06/23 13:23:46;;;;;;;1.38;0.82;;;27.00;52.10;;;;;;6066699;23;20048;-66
2022/06/23 13:26:21;;;;;;;1.20;0.60;;;27.00;50.40;;;;;;6111078;23;20002;-65
2022/06/23 13:28:53;;;;;;;0.50;0.50;;;27.00;52.20;;;;;;6110332;23;20010;-66
2022/06/23 13:31:46;;;;;;;2.67;0.60;;;26.90;51.70;;;;;;6112795;23;20005;-66
2022/06/23 13:34:27;;;;;;;2.63;0.70;;;27.10;53.40;;;;;;6111372;23;20134;-64
2022/06/23 13:37:18;;;;;;;1.08;0.70;;;27.20;51.50;;;;;;6111704;23;20494;-64
2022/06/23 13:39:57;;;;;;;1.60;0.53;;;27.10;49.70;;;;;;6102500;23;20002;-64
2022/06/23 13:42:44;;;;;;;1.55;0.50;;;27.10;52.10;;;;;;6108985;23;20010;-63
2022/06/23 13:45:19;;;;;;;1.35;0.95;;;27.00;50.60;;;;;;6108687;23;20072;-64
2022/06/23 13:47:59;;;;;;;1.17;0.77;;;27.00;51.80;;;;;;6101083;23;20010;-64
2022/06/23 13:50:37;;;;;;;0.95;0.80;;;26.90;52.10;;;;;;6104405;23;20061;-65
2022/06/23 13:53:26;;;;;;;3.42;0.70;;;27.00;51.60;;;;;;6110081;23;20002;-64
2022/06/23 13:56:00;;;;;;;5.18;0.90;;;27.00;49.80;;;;;;6111088;23;20530;-64
2022/06/23 13:58:39;;;;;;;0.60;0.60;;;27.00;49.70;;;;;;6087409;23;20072;-64
2022/06/23 14:01:24;;;;;;;0.75;0.45;;;27.10;50.70;;;;;;6109692;23;20485;-65
2022/06/23 14:04:07;;;;;;;3.58;0.55;;;27.10;48.60;;;;;;6110426;23;20040;-64